sensor_id;sensor_type;location;lat;lon;timestamp;temperature;humidity
7792;DHT22;3940;49.892;10.886;2022-10-31T00:00:55;12.60;99.90
7792;DHT22;3940;49.892;10.886;2022-10-31T00:03:40;12.60;99.90
7792;DHT22;3940;49.892;10.886;2022-10-31T00:06:25;12.50;99.90
7792;DHT22;3940;49.892;10.886;2022-10-31T00:09:10;12.60;99.90
7792;DHT22;3940;49.892;10.886;2022-10-31T00:11:58;12.60;99.90
7792;DHT22;3940;49.892;10.886;2022-10-31T00:14:42;12.70;99.90
7792;DHT22;3940;49.892;10.886;2022-10-31T00:17:26;12.80;99.90
7792;DHT22;3940;49.892;10.886;2022-10-31T00:20:11;12.90;99.90
7792;DHT22;3940;49.892;10.886;2022-10-31T00:22:59;13.00;99.90
7792;DHT22;3940;49.892;10.886;2022-10-31T00:25:44;13.00;99.90
7792;DHT22;3940;49.892;10.886;2022-10-31T00:28:29;13.00;99.90
7792;DHT22;3940;49.892;10.886;2022-10-31T00:31:14;13.00;99.90
7792;DHT22;3940;49.892;10.886;2022-10-31T00:33:58;13.00;99.90
7792;DHT22;3940;49.892;10.886;2022-10-31T00:36:43;13.00;99.90
7792;DHT22;3940;49.892;10.886;2022-10-31T00:39:28;12.90;99.90
7792;DHT22;3940;49.892;10.886;2022-10-31T00:42:12;12.80;99.90
7792;DHT22;3940;49.892;10.886;2022-10-31T00:44:56;12.80;99.90
7792;DHT22;3940;49.892;10.886;2022-10-31T00:47:40;12.80;99.90
7792;DHT22;3940;49.892;10.886;2022-10-31T00:50:24;12.60;99.90
7792;DHT22;3940;49.892;10.886;2022-10-31T00:53:09;12.60;99.90
7792;DHT22;3940;49.892;10.886;2022-10-31T00:55:53;12.60;99.90
7792;DHT22;3940;49.892;10.886;2022-10-31T00:58:37;12.70;99.90
7792;DHT22;3940;49.892;10.886;2022-10-31T01:01:21;12.70;99.90
7792;DHT22;3940;49.892;10.886;2022-10-31T01:04:05;12.70;99.90
7792;DHT22;3940;49.892;10.886;2022-10-31T01:06:49;12.70;99.90
7792;DHT22;3940;49.892;10.886;2022-10-31T01:09:34;12.30;99.90
7792;DHT22;3940;49.892;10.886;2022-10-31T01:12:17;12.10;99.90
7792;DHT22;3940;49.892;10.886;2022-10-31T01:15:02;11.90;99.90
7792;DHT22;3940;49.892;10.886;2022-10-31T01:17:47;11.80;99.90
7792;DHT22;3940;49.892;10.886;2022-10-31T01:20:31;11.80;99.90
7792;DHT22;3940;49.892;10.886;2022-10-31T01:23:15;12.00;99.90
7792;DHT22;3940;49.892;10.886;2022-10-31T01:26:03;12.10;99.90
7792;DHT22;3940;49.892;10.886;2022-10-31T01:28:52;12.30;99.90
7792;DHT22;3940;49.892;10.886;2022-10-31T01:31:38;12.50;99.90
7792;DHT22;3940;49.892;10.886;2022-10-31T01:34:23;12.50;99.90
7792;DHT22;3940;49.892;10.886;2022-10-31T01:37:07;12.50;99.90
7792;DHT22;3940;49.892;10.886;2022-10-31T01:39:51;12.30;99.90
7792;DHT22;3940;49.892;10.886;2022-10-31T01:42:35;12.30;99.90
7792;DHT22;3940;49.892;10.886;2022-10-31T01:45:19;12.40;99.90
7792;DHT22;3940;49.892;10.886;2022-10-31T01:48:06;12.10;99.90
7792;DHT22;3940;49.892;10.886;2022-10-31T01:50:56;11.80;99.90
7792;DHT22;3940;49.892;10.886;2022-10-31T01:53:40;11.70;99.90
7792;DHT22;3940;49.892;10.886;2022-10-31T01:56:26;11.60;99.90
7792;DHT22;3940;49.892;10.886;2022-10-31T01:59:13;11.70;99.90
7792;DHT22;3940;49.892;10.886;2022-10-31T02:02:00;11.60;99.90
7792;DHT22;3940;49.892;10.886;2022-10-31T02:04:46;11.60;99.90
7792;DHT22;3940;49.892;10.886;2022-10-31T02:10:36;11.50;99.90
7792;DHT22;3940;49.892;10.886;2022-10-31T02:13:21;11.60;99.90
7792;DHT22;3940;49.892;10.886;2022-10-31T02:16:09;11.70;99.90
7792;DHT22;3940;49.892;10.886;2022-10-31T02:18:53;11.70;99.90
7792;DHT22;3940;49.892;10.886;2022-10-31T02:21:50;11.70;99.90
7792;DHT22;3940;49.892;10.886;2022-10-31T02:24:45;11.60;99.90
7792;DHT22;3940;49.892;10.886;2022-10-31T02:27:49;11.50;99.90
7792;DHT22;3940;49.892;10.886;2022-10-31T02:31:09;11.50;99.90
7792;DHT22;3940;49.892;10.886;2022-10-31T02:34:04;11.50;99.90
7792;DHT22;3940;49.892;10.886;2022-10-31T02:36:57;11.30;99.90
7792;DHT22;3940;49.892;10.886;2022-10-31T02:39:53;11.40;99.90
7792;DHT22;3940;49.892;10.886;2022-10-31T02:43:02;11.30;99.90
7792;DHT22;3940;49.892;10.886;2022-10-31T02:45:58;11.30;99.90
7792;DHT22;3940;49.892;10.886;2022-10-31T02:48:44;11.10;99.90
7792;DHT22;3940;49.892;10.886;2022-10-31T02:51:29;10.90;99.90
7792;DHT22;3940;49.892;10.886;2022-10-31T02:54:29;10.80;99.90
7792;DHT22;3940;49.892;10.886;2022-10-31T02:57:17;10.60;99.90
7792;DHT22;3940;49.892;10.886;2022-10-31T03:00:06;10.70;99.90
7792;DHT22;3940;49.892;10.886;2022-10-31T03:03:00;10.60;99.90
7792;DHT22;3940;49.892;10.886;2022-10-31T03:06:02;10.70;99.90
7792;DHT22;3940;49.892;10.886;2022-10-31T03:08:55;10.90;99.90
7792;DHT22;3940;49.892;10.886;2022-10-31T03:11:56;10.90;99.90
7792;DHT22;3940;49.892;10.886;2022-10-31T03:14:48;10.90;99.90
7792;DHT22;3940;49.892;10.886;2022-10-31T03:17:38;11.00;99.90
7792;DHT22;3940;49.892;10.886;2022-10-31T03:20:27;11.20;99.90
7792;DHT22;3940;49.892;10.886;2022-10-31T03:23:15;11.30;99.90
7792;DHT22;3940;49.892;10.886;2022-10-31T03:26:03;11.30;99.90
7792;DHT22;3940;49.892;10.886;2022-10-31T03:28:54;11.30;99.90
7792;DHT22;3940;49.892;10.886;2022-10-31T03:32:01;11.30;99.90
7792;DHT22;3940;49.892;10.886;2022-10-31T03:34:47;11.30;99.90
7792;DHT22;3940;49.892;10.886;2022-10-31T03:37:34;11.30;99.90
7792;DHT22;3940;49.892;10.886;2022-10-31T03:40:21;11.30;99.90
7792;DHT22;3940;49.892;10.886;2022-10-31T03:43:10;11.30;99.90
7792;DHT22;3940;49.892;10.886;2022-10-31T03:45:56;11.40;99.90
7792;DHT22;3940;49.892;10.886;2022-10-31T03:48:41;11.40;99.90
7792;DHT22;3940;49.892;10.886;2022-10-31T03:51:37;11.50;99.90
7792;DHT22;3940;49.892;10.886;2022-10-31T03:54:30;11.50;99.90
7792;DHT22;3940;49.892;10.886;2022-10-31T03:57:29;11.60;99.90
7792;DHT22;3940;49.892;10.886;2022-10-31T04:00:15;11.80;99.90
7792;DHT22;3940;49.892;10.886;2022-10-31T04:03:07;11.80;99.90
7792;DHT22;3940;49.892;10.886;2022-10-31T04:05:55;11.90;99.90
7792;DHT22;3940;49.892;10.886;2022-10-31T04:08:49;11.90;99.90
7792;DHT22;3940;49.892;10.886;2022-10-31T04:11:41;11.90;99.90
7792;DHT22;3940;49.892;10.886;2022-10-31T04:14:30;11.80;99.90
7792;DHT22;3940;49.892;10.886;2022-10-31T04:17:18;11.70;99.90
7792;DHT22;3940;49.892;10.886;2022-10-31T04:20:04;11.50;99.90
7792;DHT22;3940;49.892;10.886;2022-10-31T04:22:48;11.20;99.90
7792;DHT22;3940;49.892;10.886;2022-10-31T04:25:33;11.20;99.90
7792;DHT22;3940;49.892;10.886;2022-10-31T04:28:17;11.10;99.90
7792;DHT22;3940;49.892;10.886;2022-10-31T04:31:01;11.10;99.90
7792;DHT22;3940;49.892;10.886;2022-10-31T04:33:46;11.00;99.90
7792;DHT22;3940;49.892;10.886;2022-10-31T04:36:31;10.90;99.90
7792;DHT22;3940;49.892;10.886;2022-10-31T04:39:15;10.90;99.90
7792;DHT22;3940;49.892;10.886;2022-10-31T04:41:59;11.00;99.90
7792;DHT22;3940;49.892;10.886;2022-10-31T04:44:43;11.10;99.90
7792;DHT22;3940;49.892;10.886;2022-10-31T04:47:30;11.40;99.90
7792;DHT22;3940;49.892;10.886;2022-10-31T04:50:14;11.50;99.90
7792;DHT22;3940;49.892;10.886;2022-10-31T04:52:59;11.70;99.90
7792;DHT22;3940;49.892;10.886;2022-10-31T04:55:43;11.70;99.90
7792;DHT22;3940;49.892;10.886;2022-10-31T04:58:27;11.80;99.90
7792;DHT22;3940;49.892;10.886;2022-10-31T05:01:12;11.80;99.90
7792;DHT22;3940;49.892;10.886;2022-10-31T05:03:56;11.80;99.90
7792;DHT22;3940;49.892;10.886;2022-10-31T05:06:40;11.80;99.90
7792;DHT22;3940;49.892;10.886;2022-10-31T05:09:24;11.80;99.90
7792;DHT22;3940;49.892;10.886;2022-10-31T05:12:09;11.80;99.90
7792;DHT22;3940;49.892;10.886;2022-10-31T05:14:53;11.80;99.90
7792;DHT22;3940;49.892;10.886;2022-10-31T05:17:37;11.80;99.90
7792;DHT22;3940;49.892;10.886;2022-10-31T05:20:24;11.80;99.90
7792;DHT22;3940;49.892;10.886;2022-10-31T05:23:09;11.80;99.90
7792;DHT22;3940;49.892;10.886;2022-10-31T05:25:53;11.90;99.90
7792;DHT22;3940;49.892;10.886;2022-10-31T05:28:38;11.90;99.90
7792;DHT22;3940;49.892;10.886;2022-10-31T05:31:22;12.00;99.90
7792;DHT22;3940;49.892;10.886;2022-10-31T05:34:06;12.00;99.90
7792;DHT22;3940;49.892;10.886;2022-10-31T05:36:50;12.00;99.90
7792;DHT22;3940;49.892;10.886;2022-10-31T05:39:35;12.00;99.90
7792;DHT22;3940;49.892;10.886;2022-10-31T05:42:19;11.90;99.90
7792;DHT22;3940;49.892;10.886;2022-10-31T05:45:03;11.90;99.90
7792;DHT22;3940;49.892;10.886;2022-10-31T05:47:57;11.90;99.90
7792;DHT22;3940;49.892;10.886;2022-10-31T05:50:41;11.80;99.90
7792;DHT22;3940;49.892;10.886;2022-10-31T05:53:26;11.90;99.90
7792;DHT22;3940;49.892;10.886;2022-10-31T05:56:10;11.90;99.90
7792;DHT22;3940;49.892;10.886;2022-10-31T05:58:54;11.90;99.90
7792;DHT22;3940;49.892;10.886;2022-10-31T06:01:38;12.00;99.90
7792;DHT22;3940;49.892;10.886;2022-10-31T06:04:22;12.00;99.90
7792;DHT22;3940;49.892;10.886;2022-10-31T06:07:06;12.00;99.90
7792;DHT22;3940;49.892;10.886;2022-10-31T06:09:50;12.00;99.90
7792;DHT22;3940;49.892;10.886;2022-10-31T06:12:35;12.00;99.90
7792;DHT22;3940;49.892;10.886;2022-10-31T06:15:21;11.90;99.90
7792;DHT22;3940;49.892;10.886;2022-10-31T06:18:06;11.90;99.90
7792;DHT22;3940;49.892;10.886;2022-10-31T06:20:51;11.90;99.90
7792;DHT22;3940;49.892;10.886;2022-10-31T06:23:35;11.90;99.90
7792;DHT22;3940;49.892;10.886;2022-10-31T06:26:20;11.90;99.90
7792;DHT22;3940;49.892;10.886;2022-10-31T06:29:04;11.80;99.90
7792;DHT22;3940;49.892;10.886;2022-10-31T06:31:51;11.80;99.90
7792;DHT22;3940;49.892;10.886;2022-10-31T06:34:35;11.80;99.90
7792;DHT22;3940;49.892;10.886;2022-10-31T06:37:19;11.80;99.90
7792;DHT22;3940;49.892;10.886;2022-10-31T06:40:04;11.70;99.90
7792;DHT22;3940;49.892;10.886;2022-10-31T06:42:59;11.70;99.90
7792;DHT22;3940;49.892;10.886;2022-10-31T06:45:44;11.80;99.90
7792;DHT22;3940;49.892;10.886;2022-10-31T06:48:28;11.90;99.90
7792;DHT22;3940;49.892;10.886;2022-10-31T06:51:12;11.80;99.90
7792;DHT22;3940;49.892;10.886;2022-10-31T06:53:56;11.90;99.90
7792;DHT22;3940;49.892;10.886;2022-10-31T06:56:40;11.90;99.90
7792;DHT22;3940;49.892;10.886;2022-10-31T06:59:25;11.90;99.90
7792;DHT22;3940;49.892;10.886;2022-10-31T07:02:10;11.90;99.90
7792;DHT22;3940;49.892;10.886;2022-10-31T07:04:54;12.00;99.90
7792;DHT22;3940;49.892;10.886;2022-10-31T07:07:38;11.90;99.90
7792;DHT22;3940;49.892;10.886;2022-10-31T07:10:24;11.80;99.90
7792;DHT22;3940;49.892;10.886;2022-10-31T07:13:11;11.70;99.90
7792;DHT22;3940;49.892;10.886;2022-10-31T07:16:01;11.70;99.90
7792;DHT22;3940;49.892;10.886;2022-10-31T07:18:46;11.90;99.90
7792;DHT22;3940;49.892;10.886;2022-10-31T07:21:30;12.00;99.90
7792;DHT22;3940;49.892;10.886;2022-10-31T07:24:14;11.90;99.90
7792;DHT22;3940;49.892;10.886;2022-10-31T07:26:58;12.00;99.90
7792;DHT22;3940;49.892;10.886;2022-10-31T07:29:42;12.00;99.90
7792;DHT22;3940;49.892;10.886;2022-10-31T07:32:26;12.00;99.90
7792;DHT22;3940;49.892;10.886;2022-10-31T07:35:13;12.00;99.90
7792;DHT22;3940;49.892;10.886;2022-10-31T07:38:06;12.10;99.90
7792;DHT22;3940;49.892;10.886;2022-10-31T07:40:52;12.00;99.90
7792;DHT22;3940;49.892;10.886;2022-10-31T07:43:37;12.00;99.90
7792;DHT22;3940;49.892;10.886;2022-10-31T07:46:21;12.20;99.90
7792;DHT22;3940;49.892;10.886;2022-10-31T07:49:06;12.30;99.90
7792;DHT22;3940;49.892;10.886;2022-10-31T07:51:51;12.40;99.90
7792;DHT22;3940;49.892;10.886;2022-10-31T07:54:35;12.50;99.90
7792;DHT22;3940;49.892;10.886;2022-10-31T07:57:19;12.50;99.90
7792;DHT22;3940;49.892;10.886;2022-10-31T08:00:05;12.40;99.90
7792;DHT22;3940;49.892;10.886;2022-10-31T08:02:57;12.50;99.90
7792;DHT22;3940;49.892;10.886;2022-10-31T08:05:42;12.60;99.90
7792;DHT22;3940;49.892;10.886;2022-10-31T08:08:29;12.70;99.90
7792;DHT22;3940;49.892;10.886;2022-10-31T08:11:13;12.80;99.90
7792;DHT22;3940;49.892;10.886;2022-10-31T08:13:57;12.70;99.90
7792;DHT22;3940;49.892;10.886;2022-10-31T08:16:41;12.60;99.90
7792;DHT22;3940;49.892;10.886;2022-10-31T08:19:27;12.40;99.90
7792;DHT22;3940;49.892;10.886;2022-10-31T08:22:11;12.30;99.90
7792;DHT22;3940;49.892;10.886;2022-10-31T08:24:55;12.50;99.90
7792;DHT22;3940;49.892;10.886;2022-10-31T08:27:39;12.50;99.90
7792;DHT22;3940;49.892;10.886;2022-10-31T08:30:26;12.70;99.90
7792;DHT22;3940;49.892;10.886;2022-10-31T08:33:14;12.70;99.90
7792;DHT22;3940;49.892;10.886;2022-10-31T08:35:58;12.80;99.90
7792;DHT22;3940;49.892;10.886;2022-10-31T08:38:42;12.90;99.90
7792;DHT22;3940;49.892;10.886;2022-10-31T08:41:27;12.90;99.90
7792;DHT22;3940;49.892;10.886;2022-10-31T08:44:11;12.90;99.90
7792;DHT22;3940;49.892;10.886;2022-10-31T08:46:55;13.00;99.90
7792;DHT22;3940;49.892;10.886;2022-10-31T08:49:39;13.00;99.90
7792;DHT22;3940;49.892;10.886;2022-10-31T08:52:24;12.80;99.90
7792;DHT22;3940;49.892;10.886;2022-10-31T08:55:09;12.80;99.90
7792;DHT22;3940;49.892;10.886;2022-10-31T08:57:57;12.90;99.90
7792;DHT22;3940;49.892;10.886;2022-10-31T09:00:42;12.90;99.90
7792;DHT22;3940;49.892;10.886;2022-10-31T09:03:28;12.90;99.90
7792;DHT22;3940;49.892;10.886;2022-10-31T09:06:13;13.00;99.90
7792;DHT22;3940;49.892;10.886;2022-10-31T09:08:57;13.00;99.90
7792;DHT22;3940;49.892;10.886;2022-10-31T09:11:41;13.00;99.90
7792;DHT22;3940;49.892;10.886;2022-10-31T09:14:26;13.00;99.90
7792;DHT22;3940;49.892;10.886;2022-10-31T09:17:10;13.00;99.90
7792;DHT22;3940;49.892;10.886;2022-10-31T09:19:54;13.00;99.90
7792;DHT22;3940;49.892;10.886;2022-10-31T09:22:39;12.90;99.90
7792;DHT22;3940;49.892;10.886;2022-10-31T09:25:23;13.10;99.90
7792;DHT22;3940;49.892;10.886;2022-10-31T09:28:11;13.20;99.90
7792;DHT22;3940;49.892;10.886;2022-10-31T09:30:56;13.30;99.90
7792;DHT22;3940;49.892;10.886;2022-10-31T09:33:40;13.40;99.90
7792;DHT22;3940;49.892;10.886;2022-10-31T09:36:26;13.50;99.90
7792;DHT22;3940;49.892;10.886;2022-10-31T09:39:11;13.50;99.90
7792;DHT22;3940;49.892;10.886;2022-10-31T09:42:07;13.40;99.90
7792;DHT22;3940;49.892;10.886;2022-10-31T09:48:22;13.00;99.90
7792;DHT22;3940;49.892;10.886;2022-10-31T09:51:12;13.00;99.90
7792;DHT22;3940;49.892;10.886;2022-10-31T09:54:45;13.20;99.90
7792;DHT22;3940;49.892;10.886;2022-10-31T09:57:14;13.20;99.90
7792;DHT22;3940;49.892;10.886;2022-10-31T10:00:00;13.30;99.90
7792;DHT22;3940;49.892;10.886;2022-10-31T10:03:10;13.40;99.90
7792;DHT22;3940;49.892;10.886;2022-10-31T10:06:11;13.50;99.90
7792;DHT22;3940;49.892;10.886;2022-10-31T10:08:57;13.60;99.90
7792;DHT22;3940;49.892;10.886;2022-10-31T10:11:58;13.60;99.90
7792;DHT22;3940;49.892;10.886;2022-10-31T10:18:08;13.70;99.90
7792;DHT22;3940;49.892;10.886;2022-10-31T10:24:42;13.50;99.90
7792;DHT22;3940;49.892;10.886;2022-10-31T10:27:52;13.80;99.90
7792;DHT22;3940;49.892;10.886;2022-10-31T10:30:43;13.90;99.90
7792;DHT22;3940;49.892;10.886;2022-10-31T10:33:54;14.00;99.90
7792;DHT22;3940;49.892;10.886;2022-10-31T10:36:44;14.10;99.90
7792;DHT22;3940;49.892;10.886;2022-10-31T10:39:38;14.30;99.90
7792;DHT22;3940;49.892;10.886;2022-10-31T10:42:26;14.50;99.90
7792;DHT22;3940;49.892;10.886;2022-10-31T10:45:24;14.60;99.90
7792;DHT22;3940;49.892;10.886;2022-10-31T10:48:45;14.60;99.90
7792;DHT22;3940;49.892;10.886;2022-10-31T10:51:43;14.80;99.90
7792;DHT22;3940;49.892;10.886;2022-10-31T10:57:54;14.80;99.90
7792;DHT22;3940;49.892;10.886;2022-10-31T11:00:44;15.60;99.90
7792;DHT22;3940;49.892;10.886;2022-10-31T11:03:35;15.80;99.90
7792;DHT22;3940;49.892;10.886;2022-10-31T11:06:23;16.20;99.90
7792;DHT22;3940;49.892;10.886;2022-10-31T11:09:10;16.80;99.90
7792;DHT22;3940;49.892;10.886;2022-10-31T11:11:55;17.20;99.90
7792;DHT22;3940;49.892;10.886;2022-10-31T11:14:52;17.50;99.90
7792;DHT22;3940;49.892;10.886;2022-10-31T11:17:39;17.40;99.90
7792;DHT22;3940;49.892;10.886;2022-10-31T11:20:30;17.10;99.90
7792;DHT22;3940;49.892;10.886;2022-10-31T11:23:19;17.10;99.90
7792;DHT22;3940;49.892;10.886;2022-10-31T11:26:05;17.20;99.90
7792;DHT22;3940;49.892;10.886;2022-10-31T11:28:58;17.20;99.90
7792;DHT22;3940;49.892;10.886;2022-10-31T11:31:45;17.20;99.90
7792;DHT22;3940;49.892;10.886;2022-10-31T11:34:34;17.30;99.90
7792;DHT22;3940;49.892;10.886;2022-10-31T11:37:23;17.40;99.90
7792;DHT22;3940;49.892;10.886;2022-10-31T11:40:19;17.30;99.90
7792;DHT22;3940;49.892;10.886;2022-10-31T11:43:15;17.20;99.90
7792;DHT22;3940;49.892;10.886;2022-10-31T11:46:10;17.30;99.90
7792;DHT22;3940;49.892;10.886;2022-10-31T11:48:55;17.70;99.90
7792;DHT22;3940;49.892;10.886;2022-10-31T11:51:40;17.70;99.90
7792;DHT22;3940;49.892;10.886;2022-10-31T11:54:29;17.80;99.90
7792;DHT22;3940;49.892;10.886;2022-10-31T11:57:26;17.90;99.90
7792;DHT22;3940;49.892;10.886;2022-10-31T12:00:26;17.90;99.90
7792;DHT22;3940;49.892;10.886;2022-10-31T12:06:30;18.10;99.90
7792;DHT22;3940;49.892;10.886;2022-10-31T12:09:21;17.80;99.90
7792;DHT22;3940;49.892;10.886;2022-10-31T12:12:25;18.00;99.90
7792;DHT22;3940;49.892;10.886;2022-10-31T12:15:34;17.90;99.90
7792;DHT22;3940;49.892;10.886;2022-10-31T12:18:35;17.80;99.90
7792;DHT22;3940;49.892;10.886;2022-10-31T12:21:34;17.90;99.90
7792;DHT22;3940;49.892;10.886;2022-10-31T12:24:33;17.70;99.90
7792;DHT22;3940;49.892;10.886;2022-10-31T12:27:35;17.90;99.90
7792;DHT22;3940;49.892;10.886;2022-10-31T12:30:26;17.90;99.90
7792;DHT22;3940;49.892;10.886;2022-10-31T12:40:05;17.90;99.90
7792;DHT22;3940;49.892;10.886;2022-10-31T12:43:12;17.90;99.90
7792;DHT22;3940;49.892;10.886;2022-10-31T12:46:00;17.90;99.90
7792;DHT22;3940;49.892;10.886;2022-10-31T12:49:04;18.20;99.90
7792;DHT22;3940;49.892;10.886;2022-10-31T12:52:09;18.30;99.90
7792;DHT22;3940;49.892;10.886;2022-10-31T12:55:14;18.40;99.90
7792;DHT22;3940;49.892;10.886;2022-10-31T12:58:07;18.40;99.90
7792;DHT22;3940;49.892;10.886;2022-10-31T13:01:39;18.30;99.90
7792;DHT22;3940;49.892;10.886;2022-10-31T13:04:16;18.40;99.90
7792;DHT22;3940;49.892;10.886;2022-10-31T13:07:07;18.50;99.90
7792;DHT22;3940;49.892;10.886;2022-10-31T13:10:15;18.50;99.90
7792;DHT22;3940;49.892;10.886;2022-10-31T13:13:14;18.40;99.90
7792;DHT22;3940;49.892;10.886;2022-10-31T13:16:04;18.20;99.90
7792;DHT22;3940;49.892;10.886;2022-10-31T13:19:00;18.10;99.90
7792;DHT22;3940;49.892;10.886;2022-10-31T13:22:10;18.10;99.90
7792;DHT22;3940;49.892;10.886;2022-10-31T13:28:43;17.80;99.90
7792;DHT22;3940;49.892;10.886;2022-10-31T13:31:32;17.60;99.90
7792;DHT22;3940;49.892;10.886;2022-10-31T13:34:25;17.50;99.90
7792;DHT22;3940;49.892;10.886;2022-10-31T13:37:32;17.40;99.90
7792;DHT22;3940;49.892;10.886;2022-10-31T13:40:32;17.30;99.90
7792;DHT22;3940;49.892;10.886;2022-10-31T13:43:33;17.30;99.90
7792;DHT22;3940;49.892;10.886;2022-10-31T13:46:35;17.20;99.90
7792;DHT22;3940;49.892;10.886;2022-10-31T13:49:37;17.20;99.90
7792;DHT22;3940;49.892;10.886;2022-10-31T13:52:24;17.20;99.90
7792;DHT22;3940;49.892;10.886;2022-10-31T13:55:44;17.20;99.90
7792;DHT22;3940;49.892;10.886;2022-10-31T13:58:30;17.20;99.90
7792;DHT22;3940;49.892;10.886;2022-10-31T14:01:20;17.20;99.90
7792;DHT22;3940;49.892;10.886;2022-10-31T14:04:13;17.20;99.90
7792;DHT22;3940;49.892;10.886;2022-10-31T14:07:16;17.10;99.90
7792;DHT22;3940;49.892;10.886;2022-10-31T14:10:06;17.10;99.90
7792;DHT22;3940;49.892;10.886;2022-10-31T14:19:17;16.90;99.90
7792;DHT22;3940;49.892;10.886;2022-10-31T14:22:02;16.90;99.90
7792;DHT22;3940;49.892;10.886;2022-10-31T14:24:46;16.80;99.90
7792;DHT22;3940;49.892;10.886;2022-10-31T14:27:34;16.70;99.90
7792;DHT22;3940;49.892;10.886;2022-10-31T14:30:20;16.80;99.90
7792;DHT22;3940;49.892;10.886;2022-10-31T14:33:18;16.70;99.90
7792;DHT22;3940;49.892;10.886;2022-10-31T14:36:11;16.70;99.90
7792;DHT22;3940;49.892;10.886;2022-10-31T14:42:31;16.70;99.90
7792;DHT22;3940;49.892;10.886;2022-10-31T14:51:51;16.70;99.90
7792;DHT22;3940;49.892;10.886;2022-10-31T14:54:41;16.50;99.90
7792;DHT22;3940;49.892;10.886;2022-10-31T14:57:31;16.60;99.90
7792;DHT22;3940;49.892;10.886;2022-10-31T15:00:19;16.50;99.90
7792;DHT22;3940;49.892;10.886;2022-10-31T15:03:35;16.50;99.90
7792;DHT22;3940;49.892;10.886;2022-10-31T15:06:22;16.40;99.90
7792;DHT22;3940;49.892;10.886;2022-10-31T15:09:24;16.30;99.90
7792;DHT22;3940;49.892;10.886;2022-10-31T15:12:28;16.40;99.90
7792;DHT22;3940;49.892;10.886;2022-10-31T15:15:16;16.40;99.90
7792;DHT22;3940;49.892;10.886;2022-10-31T15:18:04;16.50;99.90
7792;DHT22;3940;49.892;10.886;2022-10-31T15:20:50;16.40;99.90
7792;DHT22;3940;49.892;10.886;2022-10-31T15:23:35;16.30;99.90
7792;DHT22;3940;49.892;10.886;2022-10-31T15:26:22;16.20;99.90
7792;DHT22;3940;49.892;10.886;2022-10-31T15:29:19;16.20;99.90
7792;DHT22;3940;49.892;10.886;2022-10-31T15:32:22;16.10;99.90
7792;DHT22;3940;49.892;10.886;2022-10-31T15:35:10;16.00;99.90
7792;DHT22;3940;49.892;10.886;2022-10-31T15:37:56;15.90;99.90
7792;DHT22;3940;49.892;10.886;2022-10-31T15:40:52;15.90;99.90
7792;DHT22;3940;49.892;10.886;2022-10-31T15:43:38;15.80;99.90
7792;DHT22;3940;49.892;10.886;2022-10-31T15:46:23;15.70;99.90
7792;DHT22;3940;49.892;10.886;2022-10-31T15:49:26;15.60;99.90
7792;DHT22;3940;49.892;10.886;2022-10-31T15:52:16;15.50;99.90
7792;DHT22;3940;49.892;10.886;2022-10-31T15:55:21;15.50;99.90
7792;DHT22;3940;49.892;10.886;2022-10-31T15:58:13;15.40;99.90
7792;DHT22;3940;49.892;10.886;2022-10-31T16:01:03;15.40;99.90
7792;DHT22;3940;49.892;10.886;2022-10-31T16:07:14;15.40;99.90
7792;DHT22;3940;49.892;10.886;2022-10-31T16:10:03;15.40;99.90
7792;DHT22;3940;49.892;10.886;2022-10-31T16:12:49;15.40;99.90
7792;DHT22;3940;49.892;10.886;2022-10-31T16:15:55;15.40;99.90
7792;DHT22;3940;49.892;10.886;2022-10-31T16:18:44;15.50;99.90
7792;DHT22;3940;49.892;10.886;2022-10-31T16:21:34;15.40;99.90
7792;DHT22;3940;49.892;10.886;2022-10-31T16:24:25;15.40;99.90
7792;DHT22;3940;49.892;10.886;2022-10-31T16:27:19;15.40;99.90
7792;DHT22;3940;49.892;10.886;2022-10-31T16:30:28;15.30;99.90
7792;DHT22;3940;49.892;10.886;2022-10-31T16:33:31;15.30;99.90
7792;DHT22;3940;49.892;10.886;2022-10-31T16:36:35;15.30;99.90
7792;DHT22;3940;49.892;10.886;2022-10-31T16:39:22;15.30;99.90
7792;DHT22;3940;49.892;10.886;2022-10-31T16:42:08;15.20;99.90
7792;DHT22;3940;49.892;10.886;2022-10-31T16:44:54;15.20;99.90
7792;DHT22;3940;49.892;10.886;2022-10-31T16:47:38;15.20;99.90
7792;DHT22;3940;49.892;10.886;2022-10-31T16:50:25;15.10;99.90
7792;DHT22;3940;49.892;10.886;2022-10-31T16:53:11;15.10;99.90
7792;DHT22;3940;49.892;10.886;2022-10-31T16:55:57;15.10;99.90
7792;DHT22;3940;49.892;10.886;2022-10-31T16:58:42;15.10;99.90
7792;DHT22;3940;49.892;10.886;2022-10-31T17:01:27;15.00;99.90
7792;DHT22;3940;49.892;10.886;2022-10-31T17:04:13;15.00;99.90
7792;DHT22;3940;49.892;10.886;2022-10-31T17:06:58;14.90;99.90
7792;DHT22;3940;49.892;10.886;2022-10-31T17:09:42;14.90;99.90
7792;DHT22;3940;49.892;10.886;2022-10-31T17:12:26;14.80;99.90
7792;DHT22;3940;49.892;10.886;2022-10-31T17:15:27;14.80;99.90
7792;DHT22;3940;49.892;10.886;2022-10-31T17:18:15;14.80;99.90
7792;DHT22;3940;49.892;10.886;2022-10-31T17:21:02;14.70;99.90
7792;DHT22;3940;49.892;10.886;2022-10-31T17:23:48;14.60;99.90
7792;DHT22;3940;49.892;10.886;2022-10-31T17:26:33;14.70;99.90
7792;DHT22;3940;49.892;10.886;2022-10-31T17:29:17;14.60;99.90
7792;DHT22;3940;49.892;10.886;2022-10-31T17:32:01;14.70;99.90
7792;DHT22;3940;49.892;10.886;2022-10-31T17:34:47;14.60;99.90
7792;DHT22;3940;49.892;10.886;2022-10-31T17:37:31;14.50;99.90
7792;DHT22;3940;49.892;10.886;2022-10-31T17:40:18;14.50;99.90
7792;DHT22;3940;49.892;10.886;2022-10-31T17:43:03;14.40;99.90
7792;DHT22;3940;49.892;10.886;2022-10-31T17:45:47;14.40;99.90
7792;DHT22;3940;49.892;10.886;2022-10-31T17:48:33;14.30;99.90
7792;DHT22;3940;49.892;10.886;2022-10-31T17:51:18;14.20;99.90
7792;DHT22;3940;49.892;10.886;2022-10-31T17:54:03;14.20;99.90
7792;DHT22;3940;49.892;10.886;2022-10-31T17:56:49;14.10;99.90
7792;DHT22;3940;49.892;10.886;2022-10-31T17:59:33;14.00;99.90
7792;DHT22;3940;49.892;10.886;2022-10-31T18:02:17;13.90;99.90
7792;DHT22;3940;49.892;10.886;2022-10-31T18:05:01;13.90;99.90
7792;DHT22;3940;49.892;10.886;2022-10-31T18:07:49;13.80;99.90
7792;DHT22;3940;49.892;10.886;2022-10-31T18:10:33;13.80;99.90
7792;DHT22;3940;49.892;10.886;2022-10-31T18:13:18;13.70;99.90
7792;DHT22;3940;49.892;10.886;2022-10-31T18:16:07;13.70;99.90
7792;DHT22;3940;49.892;10.886;2022-10-31T18:18:54;13.70;99.90
7792;DHT22;3940;49.892;10.886;2022-10-31T18:21:39;13.80;99.90
7792;DHT22;3940;49.892;10.886;2022-10-31T18:24:23;13.90;99.90
7792;DHT22;3940;49.892;10.886;2022-10-31T18:27:08;13.80;99.90
7792;DHT22;3940;49.892;10.886;2022-10-31T18:29:52;13.80;99.90
7792;DHT22;3940;49.892;10.886;2022-10-31T18:32:36;13.80;99.90
7792;DHT22;3940;49.892;10.886;2022-10-31T18:35:30;13.80;99.90
7792;DHT22;3940;49.892;10.886;2022-10-31T18:38:26;13.80;99.90
7792;DHT22;3940;49.892;10.886;2022-10-31T18:41:31;13.80;99.90
7792;DHT22;3940;49.892;10.886;2022-10-31T18:44:15;13.80;99.90
7792;DHT22;3940;49.892;10.886;2022-10-31T18:46:59;13.80;99.90
7792;DHT22;3940;49.892;10.886;2022-10-31T18:49:44;13.70;99.90
7792;DHT22;3940;49.892;10.886;2022-10-31T18:52:28;13.70;99.90
7792;DHT22;3940;49.892;10.886;2022-10-31T18:55:12;13.70;99.90